VLG6358 LPMA-LPPR
Flight info
| Callsign | VLG6358 |
|---|---|
| Flight time | 1h 40m |
| Altitude | 38000 |
| Route | DEGUN DCT RULET DCT GALPA DCT VABEM DCT LAMDI DCT ASMOV |
| Aircraft | A20N/M-SDE2E3FGHIRWXY/LB1 |
Departure
| Time | 2026-05-04 10:42 |
|---|---|
| Airport | Cristiano Ronaldo International Airport (LPMA) |
Arrival
| Time | 2026-05-04 12:22 |
|---|---|
| Airport | Francisco de Sá Carneiro Airport (LPPR) |
| Time | Latitude | Longitude | Altitude | Speed | Heading |
|---|---|---|---|---|---|
| 2026-05-04 10:00 | 32.69360 | -16.77662 | 173 ft | 0 kts | 138° |
| 2026-05-04 10:25 | 32.69433 | -16.77683 | 169 ft | 0 kts | 216° |
| 2026-05-04 10:32 | 32.69433 | -16.77657 | 170 ft | 4 kts | 1° |
| 2026-05-04 10:33 | 32.69433 | -16.77656 | 170 ft | 1 kts | 9° |
| 2026-05-04 10:33 | 32.69451 | -16.77649 | 171 ft | 2 kts | 23° |
| 2026-05-04 10:33 | 32.69453 | -16.77648 | 171 ft | 0 kts | 25° |
| 2026-05-04 10:34 | 32.69470 | -16.77635 | 171 ft | 6 kts | 36° |
| 2026-05-04 10:34 | 32.69530 | -16.77564 | 174 ft | 18 kts | 47° |
| 2026-05-04 10:34 | 32.69640 | -16.77423 | 172 ft | 29 kts | 42° |
| 2026-05-04 10:34 | 32.69803 | -16.77217 | 172 ft | 28 kts | 43° |
| 2026-05-04 10:35 | 32.69829 | -16.77200 | 174 ft | 0 kts | 24° |
| 2026-05-04 10:36 | 32.69825 | -16.77202 | 174 ft | 4 kts | 33° |
| 2026-05-04 10:37 | 32.69803 | -16.77222 | 172 ft | 0 kts | 44° |
| 2026-05-04 10:39 | 32.70044 | -16.77154 | 180 ft | 27 kts | 39° |
| 2026-05-04 10:39 | 32.70194 | -16.76974 | 196 ft | 35 kts | 44° |
| 2026-05-04 10:39 | 32.70387 | -16.76748 | 198 ft | 42 kts | 45° |
| 2026-05-04 10:40 | 32.70566 | -16.76539 | 202 ft | 22 kts | 44° |
| 2026-05-04 10:40 | 32.70683 | -16.76465 | 200 ft | 3 kts | 75° |
| 2026-05-04 10:40 | 32.70667 | -16.76452 | 202 ft | 8 kts | 162° |
| 2026-05-04 10:40 | 32.70593 | -16.76509 | 201 ft | 20 kts | 221° |
| 2026-05-04 10:41 | 32.70558 | -16.76548 | 203 ft | 0 kts | 224° |
| 2026-05-04 10:41 | 32.70517 | -16.76595 | 202 ft | 28 kts | 224° |
| 2026-05-04 10:41 | 32.70168 | -16.76996 | 184 ft | 114 kts | 224° |
| 2026-05-04 10:42 | 32.69424 | -16.77854 | 211 ft | 177 kts | 224° |
| 2026-05-04 10:42 | 32.68444 | -16.78812 | 868 ft | 186 kts | 208° |
| 2026-05-04 10:42 | 32.67196 | -16.79244 | 1595 ft | 189 kts | 181° |
| 2026-05-04 10:42 | 32.65920 | -16.78980 | 2337 ft | 195 kts | 166° |
| 2026-05-04 10:43 | 32.64524 | -16.78471 | 2831 ft | 223 kts | 165° |
| 2026-05-04 10:44 | 32.52617 | -16.70909 | 5449 ft | 313 kts | 98° |
| 2026-05-04 10:45 | 32.52769 | -16.68418 | 5769 ft | 298 kts | 71° |
| 2026-05-04 10:45 | 32.53791 | -16.66363 | 6455 ft | 287 kts | 43° |
| 2026-05-04 10:45 | 32.55359 | -16.64936 | 7412 ft | 285 kts | 33° |
| 2026-05-04 10:45 | 32.56969 | -16.63534 | 8432 ft | 290 kts | 36° |
| 2026-05-04 10:46 | 32.58536 | -16.61987 | 9372 ft | 295 kts | 39° |
| 2026-05-04 10:46 | 32.60050 | -16.60327 | 10263 ft | 301 kts | 41° |
| 2026-05-04 10:46 | 32.61598 | -16.58531 | 10734 ft | 323 kts | 43° |
| 2026-05-04 10:46 | 32.63247 | -16.56572 | 11053 ft | 347 kts | 43° |
| 2026-05-04 10:47 | 32.64986 | -16.54491 | 11648 ft | 358 kts | 43° |
| 2026-05-04 10:47 | 32.66752 | -16.52432 | 12445 ft | 363 kts | 41° |
| 2026-05-04 10:47 | 32.68586 | -16.50336 | 13242 ft | 368 kts | 41° |
| 2026-05-04 10:47 | 32.70452 | -16.48216 | 14019 ft | 374 kts | 41° |
| 2026-05-04 10:49 | 32.84270 | -16.32439 | 18729 ft | 413 kts | 40° |
| 2026-05-04 10:49 | 32.86346 | -16.30059 | 19316 ft | 417 kts | 40° |
| 2026-05-04 10:50 | 32.88452 | -16.27645 | 19887 ft | 421 kts | 40° |
| 2026-05-04 10:51 | 33.03732 | -16.10078 | 23727 ft | 453 kts | 40° |
| 2026-05-04 10:52 | 33.06017 | -16.07443 | 24190 ft | 457 kts | 40° |
| 2026-05-04 10:52 | 33.08311 | -16.04795 | 24657 ft | 460 kts | 40° |
| 2026-05-04 10:52 | 33.10625 | -16.02123 | 25113 ft | 464 kts | 40° |
| 2026-05-04 10:54 | 33.27251 | -15.82862 | 28061 ft | 489 kts | 40° |
| 2026-05-04 10:54 | 33.29700 | -15.80016 | 28450 ft | 492 kts | 40° |
| 2026-05-04 10:56 | 33.47825 | -15.60580 | 30768 ft | 506 kts | 31° |
| 2026-05-04 10:56 | 33.50685 | -15.58061 | 31077 ft | 508 kts | 31° |
| 2026-05-04 10:56 | 33.53508 | -15.55568 | 31404 ft | 510 kts | 31° |
| 2026-05-04 10:57 | 33.56365 | -15.53040 | 31769 ft | 510 kts | 31° |
| 2026-05-04 10:57 | 33.59224 | -15.50508 | 32162 ft | 510 kts | 30° |
| 2026-05-04 10:57 | 33.62082 | -15.47975 | 32560 ft | 509 kts | 30° |
| 2026-05-04 10:57 | 33.64942 | -15.45439 | 32939 ft | 509 kts | 30° |
| 2026-05-04 10:58 | 33.67796 | -15.42907 | 33288 ft | 509 kts | 30° |
| 2026-05-04 10:58 | 33.70611 | -15.40408 | 33646 ft | 509 kts | 30° |
| 2026-05-04 10:58 | 33.73470 | -15.37867 | 34014 ft | 509 kts | 30° |
| 2026-05-04 10:58 | 33.76312 | -15.35339 | 34339 ft | 508 kts | 30° |
| 2026-05-04 10:59 | 33.79152 | -15.32811 | 34647 ft | 508 kts | 30° |
| 2026-05-04 10:59 | 33.82000 | -15.30273 | 34965 ft | 507 kts | 30° |
| 2026-05-04 10:59 | 33.84795 | -15.27781 | 35278 ft | 506 kts | 30° |
| 2026-05-04 10:59 | 33.87622 | -15.25258 | 35579 ft | 505 kts | 30° |
| 2026-05-04 11:00 | 33.90449 | -15.22733 | 35857 ft | 504 kts | 30° |
| 2026-05-04 11:01 | 34.10024 | -15.05191 | 37692 ft | 499 kts | 30° |
| 2026-05-04 11:02 | 34.12808 | -15.02688 | 37908 ft | 498 kts | 30° |
| 2026-05-04 11:02 | 34.15587 | -15.00188 | 38120 ft | 498 kts | 30° |
| 2026-05-04 11:05 | 34.53429 | -14.64397 | 38175 ft | 485 kts | 20° |
| 2026-05-04 11:06 | 34.59375 | -14.60594 | 38173 ft | 484 kts | 20° |
| 2026-05-04 11:06 | 34.65345 | -14.56778 | 38169 ft | 484 kts | 20° |
| 2026-05-04 11:10 | 35.06956 | -14.30023 | 38187 ft | 485 kts | 20° |
| 2026-05-04 11:12 | 35.30902 | -14.14484 | 38208 ft | 488 kts | 20° |
| 2026-05-04 11:12 | 35.36876 | -14.10591 | 38211 ft | 488 kts | 20° |
| 2026-05-04 11:13 | 35.42845 | -14.06693 | 38199 ft | 486 kts | 20° |
| 2026-05-04 11:13 | 35.48839 | -14.02775 | 38199 ft | 487 kts | 20° |
| 2026-05-04 11:14 | 35.54795 | -13.98873 | 38205 ft | 486 kts | 20° |
| 2026-05-04 11:16 | 35.78635 | -13.83192 | 38200 ft | 485 kts | 20° |
| 2026-05-04 11:16 | 35.84551 | -13.79285 | 38201 ft | 484 kts | 21° |
| 2026-05-04 11:17 | 35.90471 | -13.75367 | 38205 ft | 484 kts | 21° |
| 2026-05-04 11:19 | 36.14165 | -13.59623 | 38203 ft | 483 kts | 21° |
| 2026-05-04 11:19 | 36.20094 | -13.55666 | 38199 ft | 482 kts | 21° |
| 2026-05-04 11:20 | 36.25985 | -13.51728 | 38203 ft | 482 kts | 21° |
| 2026-05-04 11:20 | 36.31857 | -13.47795 | 38202 ft | 481 kts | 21° |
| 2026-05-04 11:22 | 36.55295 | -13.31927 | 38203 ft | 482 kts | 26° |
| 2026-05-04 11:23 | 36.60878 | -13.27188 | 38201 ft | 484 kts | 28° |
| 2026-05-04 11:25 | 36.80250 | -13.10694 | 38200 ft | 481 kts | 28° |
| 2026-05-04 11:25 | 36.85773 | -13.05963 | 38199 ft | 481 kts | 28° |
| 2026-05-04 11:27 | 37.09562 | -12.85487 | 38191 ft | 478 kts | 29° |
| 2026-05-04 11:28 | 37.15040 | -12.80750 | 38193 ft | 477 kts | 29° |
| 2026-05-04 11:28 | 37.20474 | -12.76041 | 38194 ft | 477 kts | 29° |
| 2026-05-04 11:29 | 37.25941 | -12.71297 | 38186 ft | 476 kts | 29° |
| 2026-05-04 11:29 | 37.31391 | -12.66558 | 38184 ft | 476 kts | 29° |
| 2026-05-04 11:33 | 37.69347 | -12.33318 | 38183 ft | 475 kts | 30° |
| 2026-05-04 11:33 | 37.74752 | -12.28550 | 38181 ft | 475 kts | 30° |
| 2026-05-04 11:34 | 37.80169 | -12.23763 | 38185 ft | 475 kts | 30° |
| 2026-05-04 11:34 | 37.85599 | -12.18955 | 38181 ft | 475 kts | 30° |
| 2026-05-04 11:35 | 37.90989 | -12.14175 | 38179 ft | 475 kts | 30° |
| 2026-05-04 11:35 | 37.96380 | -12.09385 | 38170 ft | 475 kts | 30° |
| 2026-05-04 11:36 | 38.01801 | -12.04559 | 38187 ft | 475 kts | 30° |
| 2026-05-04 11:36 | 38.07165 | -11.99770 | 38169 ft | 466 kts | 29° |
| 2026-05-04 11:37 | 38.12453 | -11.95043 | 38174 ft | 465 kts | 29° |
| 2026-05-04 11:37 | 38.17733 | -11.90322 | 38174 ft | 466 kts | 29° |
| 2026-05-04 11:38 | 38.23034 | -11.85568 | 38172 ft | 465 kts | 30° |
| 2026-05-04 11:38 | 38.28338 | -11.80804 | 38170 ft | 466 kts | 30° |
| 2026-05-04 11:39 | 38.33607 | -11.76062 | 38177 ft | 466 kts | 30° |
| 2026-05-04 11:41 | 38.52129 | -11.59324 | 38167 ft | 466 kts | 30° |
| 2026-05-04 11:41 | 38.57400 | -11.54540 | 38162 ft | 466 kts | 30° |
| 2026-05-04 11:42 | 38.62671 | -11.49749 | 38160 ft | 466 kts | 30° |
| 2026-05-04 11:42 | 38.67943 | -11.44947 | 38162 ft | 466 kts | 30° |
| 2026-05-04 11:43 | 38.73235 | -11.40119 | 38158 ft | 466 kts | 30° |
| 2026-05-04 11:43 | 38.78524 | -11.35284 | 38160 ft | 466 kts | 30° |
| 2026-05-04 11:44 | 38.83784 | -11.30466 | 38159 ft | 466 kts | 30° |
| 2026-05-04 11:44 | 38.89053 | -11.25632 | 38158 ft | 467 kts | 30° |
| 2026-05-04 11:45 | 38.94351 | -11.20762 | 38156 ft | 467 kts | 30° |
| 2026-05-04 11:45 | 38.99609 | -11.15920 | 38158 ft | 467 kts | 30° |
| 2026-05-04 11:46 | 39.04896 | -11.11041 | 38153 ft | 467 kts | 30° |
| 2026-05-04 11:46 | 39.10189 | -11.06148 | 38152 ft | 468 kts | 30° |
| 2026-05-04 11:47 | 39.15451 | -11.01278 | 38152 ft | 468 kts | 30° |
| 2026-05-04 11:47 | 39.20748 | -10.96368 | 38151 ft | 468 kts | 30° |
| 2026-05-04 11:48 | 39.26103 | -10.91551 | 38141 ft | 468 kts | 29° |
| 2026-05-04 11:48 | 39.31453 | -10.86821 | 38142 ft | 468 kts | 29° |
| 2026-05-04 11:49 | 39.36788 | -10.82071 | 38063 ft | 466 kts | 29° |
| 2026-05-04 11:49 | 39.39453 | -10.79688 | 37649 ft | 464 kts | 29° |
| 2026-05-04 11:49 | 39.42106 | -10.77313 | 37070 ft | 462 kts | 29° |
| 2026-05-04 11:49 | 39.44752 | -10.74942 | 36428 ft | 461 kts | 29° |
| 2026-05-04 11:50 | 39.47366 | -10.72597 | 35778 ft | 460 kts | 28° |
| 2026-05-04 11:50 | 39.50001 | -10.70232 | 35143 ft | 460 kts | 28° |
| 2026-05-04 11:50 | 39.52630 | -10.67868 | 34513 ft | 459 kts | 28° |
| 2026-05-04 11:50 | 39.55253 | -10.65508 | 33845 ft | 458 kts | 28° |
| 2026-05-04 11:51 | 39.57874 | -10.63148 | 33047 ft | 458 kts | 28° |
| 2026-05-04 11:51 | 39.60467 | -10.60814 | 32238 ft | 459 kts | 28° |
| 2026-05-04 11:51 | 39.63094 | -10.58447 | 31431 ft | 460 kts | 28° |
| 2026-05-04 11:51 | 39.65734 | -10.56066 | 30621 ft | 462 kts | 28° |
| 2026-05-04 11:52 | 39.68365 | -10.53688 | 29915 ft | 459 kts | 28° |
| 2026-05-04 11:52 | 39.70970 | -10.51330 | 29266 ft | 454 kts | 28° |
| 2026-05-04 11:52 | 39.73557 | -10.48985 | 28623 ft | 449 kts | 28° |
| 2026-05-04 11:52 | 39.76118 | -10.46664 | 27980 ft | 445 kts | 28° |
| 2026-05-04 11:53 | 39.78628 | -10.44389 | 27352 ft | 441 kts | 28° |
| 2026-05-04 11:53 | 39.81136 | -10.42113 | 26743 ft | 437 kts | 29° |
| 2026-05-04 11:53 | 39.83626 | -10.39853 | 26144 ft | 433 kts | 29° |
| 2026-05-04 11:53 | 39.86096 | -10.37610 | 25550 ft | 429 kts | 29° |
| 2026-05-04 11:55 | 40.02720 | -10.22454 | 21404 ft | 405 kts | 30° |
| 2026-05-04 11:55 | 40.05017 | -10.20352 | 20818 ft | 401 kts | 30° |
| 2026-05-04 11:56 | 40.07275 | -10.18285 | 20243 ft | 398 kts | 30° |
| 2026-05-04 11:56 | 40.09548 | -10.16202 | 19677 ft | 395 kts | 30° |
| 2026-05-04 11:56 | 40.11790 | -10.14145 | 19125 ft | 392 kts | 31° |
| 2026-05-04 11:56 | 40.13985 | -10.12130 | 18585 ft | 389 kts | 31° |
| 2026-05-04 11:57 | 40.16194 | -10.10100 | 17993 ft | 386 kts | 31° |
| 2026-05-04 11:57 | 40.18384 | -10.08085 | 17424 ft | 382 kts | 31° |
| 2026-05-04 11:57 | 40.20557 | -10.06085 | 16872 ft | 378 kts | 31° |
| 2026-05-04 11:57 | 40.22699 | -10.04111 | 16327 ft | 375 kts | 31° |
| 2026-05-04 11:58 | 40.24824 | -10.02152 | 15775 ft | 372 kts | 31° |
| 2026-05-04 11:58 | 40.26903 | -10.00234 | 15260 ft | 368 kts | 31° |
| 2026-05-04 11:58 | 40.28995 | -9.98302 | 14743 ft | 365 kts | 31° |
| 2026-05-04 11:58 | 40.31064 | -9.96390 | 14230 ft | 362 kts | 32° |
| 2026-05-04 11:59 | 40.33118 | -9.94490 | 13701 ft | 359 kts | 32° |
| 2026-05-04 11:59 | 40.35159 | -9.92601 | 13190 ft | 355 kts | 32° |
| 2026-05-04 11:59 | 40.37150 | -9.90755 | 13023 ft | 352 kts | 32° |
| 2026-05-04 11:59 | 40.39148 | -9.88906 | 12893 ft | 356 kts | 32° |
| 2026-05-04 12:00 | 40.41165 | -9.87035 | 12788 ft | 353 kts | 32° |
| 2026-05-04 12:00 | 40.43174 | -9.85170 | 12595 ft | 353 kts | 32° |
| 2026-05-04 12:00 | 40.45177 | -9.83309 | 12335 ft | 351 kts | 32° |
| 2026-05-04 12:00 | 40.47165 | -9.81459 | 12079 ft | 348 kts | 32° |
| 2026-05-04 12:01 | 40.49144 | -9.79617 | 11824 ft | 347 kts | 32° |
| 2026-05-04 12:01 | 40.51087 | -9.77809 | 11562 ft | 345 kts | 32° |
| 2026-05-04 12:02 | 40.62735 | -9.66934 | 11009 ft | 342 kts | 33° |
| 2026-05-04 12:03 | 40.64681 | -9.65112 | 11016 ft | 342 kts | 33° |
| 2026-05-04 12:03 | 40.66620 | -9.63294 | 11020 ft | 342 kts | 33° |
| 2026-05-04 12:03 | 40.68568 | -9.61467 | 11013 ft | 342 kts | 33° |
| 2026-05-04 12:03 | 40.70482 | -9.59671 | 11019 ft | 342 kts | 33° |
| 2026-05-04 12:04 | 40.72428 | -9.57843 | 11011 ft | 342 kts | 33° |
| 2026-05-04 12:04 | 40.74374 | -9.56015 | 11013 ft | 342 kts | 33° |
| 2026-05-04 12:04 | 40.76309 | -9.54195 | 11009 ft | 341 kts | 33° |
| 2026-05-04 12:04 | 40.78224 | -9.52394 | 11018 ft | 342 kts | 33° |
| 2026-05-04 12:05 | 40.80170 | -9.50560 | 11015 ft | 342 kts | 33° |
| 2026-05-04 12:05 | 40.82110 | -9.48732 | 11010 ft | 342 kts | 33° |
| 2026-05-04 12:05 | 40.84044 | -9.46908 | 11011 ft | 342 kts | 33° |
| 2026-05-04 12:05 | 40.85960 | -9.45101 | 11011 ft | 342 kts | 33° |
| 2026-05-04 12:06 | 40.87902 | -9.43267 | 10907 ft | 343 kts | 33° |
| 2026-05-04 12:06 | 40.89841 | -9.41435 | 10659 ft | 340 kts | 33° |
| 2026-05-04 12:06 | 40.91762 | -9.39617 | 10469 ft | 335 kts | 33° |
| 2026-05-04 12:06 | 40.93626 | -9.37852 | 10358 ft | 323 kts | 33° |
| 2026-05-04 12:07 | 40.95372 | -9.36126 | 10241 ft | 311 kts | 41° |
| 2026-05-04 12:07 | 40.96599 | -9.33845 | 10111 ft | 302 kts | 66° |
| 2026-05-04 12:07 | 40.97014 | -9.31155 | 9804 ft | 298 kts | 88° |
| 2026-05-04 12:07 | 40.97006 | -9.28414 | 9384 ft | 297 kts | 90° |
| 2026-05-04 12:08 | 40.96950 | -9.25683 | 8976 ft | 295 kts | 90° |
| 2026-05-04 12:08 | 40.96897 | -9.23010 | 8583 ft | 293 kts | 90° |
| 2026-05-04 12:08 | 40.96858 | -9.20317 | 8182 ft | 291 kts | 90° |
| 2026-05-04 12:08 | 40.96831 | -9.17661 | 7944 ft | 281 kts | 89° |
| 2026-05-04 12:09 | 40.96810 | -9.15138 | 7768 ft | 268 kts | 89° |
| 2026-05-04 12:09 | 40.96792 | -9.12685 | 7378 ft | 265 kts | 89° |
| 2026-05-04 12:09 | 40.96775 | -9.10264 | 7054 ft | 259 kts | 89° |
| 2026-05-04 12:09 | 40.96758 | -9.07872 | 6970 ft | 263 kts | 89° |
| 2026-05-04 12:10 | 40.96741 | -9.05437 | 7109 ft | 263 kts | 89° |
| 2026-05-04 12:10 | 40.96723 | -9.03042 | 7121 ft | 265 kts | 89° |
| 2026-05-04 12:10 | 40.96704 | -9.00605 | 7165 ft | 265 kts | 89° |
| 2026-05-04 12:10 | 40.96684 | -8.98164 | 7202 ft | 264 kts | 89° |
| 2026-05-04 12:11 | 40.96663 | -8.95755 | 7175 ft | 257 kts | 89° |
| 2026-05-04 12:11 | 40.96642 | -8.93451 | 7076 ft | 243 kts | 89° |
| 2026-05-04 12:11 | 40.96622 | -8.91272 | 6963 ft | 248 kts | 89° |
| 2026-05-04 12:11 | 40.96603 | -8.88888 | 6983 ft | 259 kts | 89° |
| 2026-05-04 12:12 | 40.96581 | -8.86586 | 6922 ft | 241 kts | 89° |
| 2026-05-04 12:12 | 40.96559 | -8.84435 | 6679 ft | 227 kts | 89° |
| 2026-05-04 12:12 | 40.96545 | -8.83051 | 6348 ft | 225 kts | 89° |
| 2026-05-04 12:12 | 40.96525 | -8.81017 | 5957 ft | 216 kts | 89° |
| 2026-05-04 12:13 | 40.96500 | -8.78284 | 5595 ft | 226 kts | 89° |
| 2026-05-04 12:14 | 40.97829 | -8.65037 | 3990 ft | 197 kts | 76° |
| 2026-05-04 12:15 | 40.98080 | -8.63365 | 3992 ft | 178 kts | 73° |
| 2026-05-04 12:15 | 40.98666 | -8.62056 | 3921 ft | 158 kts | 33° |
| 2026-05-04 12:15 | 40.99613 | -8.61572 | 3819 ft | 139 kts | 356° |
| 2026-05-04 12:15 | 41.00572 | -8.61780 | 3692 ft | 142 kts | 345° |
| 2026-05-04 12:16 | 41.01544 | -8.62045 | 3586 ft | 141 kts | 346° |
| 2026-05-04 12:16 | 41.02526 | -8.62297 | 3431 ft | 146 kts | 346° |
| 2026-05-04 12:16 | 41.03519 | -8.62550 | 3226 ft | 144 kts | 346° |
| 2026-05-04 12:16 | 41.04499 | -8.62802 | 3022 ft | 141 kts | 346° |
| 2026-05-04 12:17 | 41.05436 | -8.63041 | 3008 ft | 138 kts | 346° |
| 2026-05-04 12:17 | 41.06388 | -8.63292 | 2977 ft | 140 kts | 345° |
| 2026-05-04 12:17 | 41.07342 | -8.63545 | 2834 ft | 138 kts | 346° |
| 2026-05-04 12:17 | 41.08293 | -8.63795 | 2587 ft | 140 kts | 346° |
| 2026-05-04 12:18 | 41.09251 | -8.64047 | 2403 ft | 139 kts | 346° |
| 2026-05-04 12:18 | 41.10208 | -8.64297 | 2189 ft | 140 kts | 345° |
| 2026-05-04 12:18 | 41.11156 | -8.64547 | 1976 ft | 136 kts | 346° |
| 2026-05-04 12:18 | 41.12078 | -8.64788 | 1761 ft | 129 kts | 346° |
| 2026-05-04 12:19 | 41.12918 | -8.65006 | 1527 ft | 121 kts | 346° |
| 2026-05-04 12:19 | 41.13756 | -8.65222 | 1224 ft | 124 kts | 345° |
| 2026-05-04 12:19 | 41.14556 | -8.65431 | 1180 ft | 108 kts | 344° |
| 2026-05-04 12:19 | 41.15346 | -8.65645 | 1222 ft | 127 kts | 344° |
| 2026-05-04 12:20 | 41.16193 | -8.65869 | 1195 ft | 122 kts | 344° |
| 2026-05-04 12:20 | 41.17061 | -8.66101 | 1122 ft | 129 kts | 346° |
| 2026-05-04 12:20 | 41.17909 | -8.66339 | 981 ft | 122 kts | 347° |
| 2026-05-04 12:20 | 41.18738 | -8.66554 | 830 ft | 124 kts | 347° |
| 2026-05-04 12:21 | 41.19593 | -8.66752 | 702 ft | 124 kts | 347° |
| 2026-05-04 12:21 | 41.20443 | -8.66962 | 662 ft | 125 kts | 346° |
| 2026-05-04 12:21 | 41.21273 | -8.67198 | 539 ft | 118 kts | 346° |
| 2026-05-04 12:21 | 41.22092 | -8.67421 | 434 ft | 123 kts | 345° |
| 2026-05-04 12:22 | 41.22931 | -8.67636 | 365 ft | 124 kts | 346° |
| 2026-05-04 12:22 | 41.23774 | -8.67857 | 253 ft | 122 kts | 345° |
| 2026-05-04 12:22 | 41.24561 | -8.68070 | 207 ft | 101 kts | 350° |
| 2026-05-04 12:22 | 41.24960 | -8.68169 | 200 ft | 26 kts | 354° |
| 2026-05-04 12:23 | 41.25160 | -8.68156 | 183 ft | 33 kts | 12° |
| 2026-05-04 12:23 | 41.25253 | -8.68118 | 179 ft | 9 kts | 20° |
| 2026-05-04 12:23 | 41.25280 | -8.68089 | 178 ft | 0 kts | 58° |
| 2026-05-04 12:26 | 41.25290 | -8.68058 | 177 ft | 15 kts | 80° |
| 2026-05-04 12:26 | 41.25212 | -8.68007 | 179 ft | 22 kts | 169° |
| 2026-05-04 12:27 | 41.25086 | -8.67968 | 186 ft | 30 kts | 168° |
| 2026-05-04 12:27 | 41.24974 | -8.67943 | 197 ft | 14 kts | 169° |
| 2026-05-04 12:27 | 41.24884 | -8.67914 | 194 ft | 14 kts | 163° |
| 2026-05-04 12:27 | 41.24796 | -8.67855 | 207 ft | 14 kts | 151° |
| 2026-05-04 12:28 | 41.24704 | -8.67812 | 209 ft | 14 kts | 170° |
| 2026-05-04 12:28 | 41.24601 | -8.67789 | 208 ft | 16 kts | 170° |
| 2026-05-04 12:28 | 41.24494 | -8.67753 | 209 ft | 16 kts | 165° |
| 2026-05-04 12:28 | 41.24381 | -8.67728 | 211 ft | 18 kts | 172° |
| 2026-05-04 12:29 | 41.24277 | -8.67657 | 213 ft | 5 kts | 126° |
| 2026-05-04 12:29 | 41.24276 | -8.67657 | 213 ft | 0 kts | 126° |
| 2026-05-04 12:30 | 41.24276 | -8.67656 | 213 ft | 1 kts | 126° |
| 2026-05-04 12:30 | 41.24266 | -8.67638 | 214 ft | 5 kts | 125° |
| 2026-05-04 12:30 | 41.24232 | -8.67580 | 218 ft | 12 kts | 128° |
| 2026-05-04 12:30 | 41.24152 | -8.67475 | 223 ft | 20 kts | 147° |
| 2026-05-04 12:31 | 41.23992 | -8.67426 | 228 ft | 28 kts | 194° |
| 2026-05-04 12:31 | 41.23898 | -8.67494 | 227 ft | 2 kts | 176° |
| 2026-05-04 12:31 | 41.23844 | -8.67482 | 228 ft | 14 kts | 170° |
| 2026-05-04 12:31 | 41.23762 | -8.67461 | 228 ft | 1 kts | 167° |
| 2026-05-04 12:32 | 41.23734 | -8.67420 | 230 ft | 11 kts | 127° |
| 2026-05-04 12:32 | 41.23699 | -8.67362 | 232 ft | 1 kts | 131° |
| 2026-05-04 12:32 | 41.23702 | -8.67353 | 235 ft | 2 kts | 72° |
| 2026-05-04 12:33 | 41.23723 | -8.67300 | 237 ft | 9 kts | 68° |
| 2026-05-04 12:33 | 41.23728 | -8.67284 | 236 ft | 2 kts | 66° |
| 2026-05-04 12:33 | 41.23732 | -8.67270 | 236 ft | 0 kts | 67° |
| 2026-05-04 12:34 | 41.23735 | -8.67262 | 239 ft | 0 kts | 69° |